UAE583 VGHS-OMDB
Flight info
| Callsign | UAE583 |
|---|---|
| Flight time | N/A |
| Altitude | 36000 |
| Route | IKOGU2 IKOGU A462 CEA G450 JJS A791 BPL L639 AAE/N0489F380 L639 RASKI L301 RAGMA N571 VUSET A454 PASOV B540 KUPMA/N0458F240 B540 MIVEK P574 IMPED IMPED3C |
| Aircraft | B77W/H-SDE1E2E3FGHIJ2J3J4J5M1RWXY/LB1D1 |
Departure
| Time | 2026-05-08 06:22 |
|---|---|
| Airport | Hazrat Shahjalal International Airport (VGHS) |
Arrival
| Time | N/A |
|---|---|
| Airport | Dubai International Airport (OMDB) |
| Time | Latitude | Longitude | Altitude | Speed | Heading |
|---|---|---|---|---|---|
| 2026-05-08 05:44 | 23.84890 | 90.40296 | 41 ft | 0 kts | 54° |
| 2026-05-08 06:08 | 23.84881 | 90.40281 | 41 ft | 3 kts | 54° |
| 2026-05-08 06:09 | 23.84867 | 90.40261 | 39 ft | 3 kts | 53° |
| 2026-05-08 06:09 | 23.84855 | 90.40244 | 41 ft | 3 kts | 31° |
| 2026-05-08 06:09 | 23.84837 | 90.40240 | 39 ft | 3 kts | 338° |
| 2026-05-08 06:09 | 23.84818 | 90.40252 | 39 ft | 3 kts | 323° |
| 2026-05-08 06:10 | 23.84807 | 90.40261 | 38 ft | 1 kts | 323° |
| 2026-05-08 06:10 | 23.84806 | 90.40261 | 38 ft | 0 kts | 323° |
| 2026-05-08 06:13 | 23.84808 | 90.40260 | 41 ft | 1 kts | 323° |
| 2026-05-08 06:13 | 23.84832 | 90.40240 | 40 ft | 7 kts | 323° |
| 2026-05-08 06:13 | 23.84873 | 90.40206 | 39 ft | 7 kts | 323° |
| 2026-05-08 06:13 | 23.84917 | 90.40175 | 39 ft | 8 kts | 336° |
| 2026-05-08 06:14 | 23.84969 | 90.40163 | 41 ft | 8 kts | 349° |
| 2026-05-08 06:14 | 23.85016 | 90.40134 | 39 ft | 8 kts | 323° |
| 2026-05-08 06:14 | 23.85061 | 90.40098 | 40 ft | 8 kts | 324° |
| 2026-05-08 06:14 | 23.85107 | 90.40062 | 41 ft | 8 kts | 323° |
| 2026-05-08 06:15 | 23.85152 | 90.40026 | 41 ft | 8 kts | 323° |
| 2026-05-08 06:15 | 23.85173 | 90.39974 | 41 ft | 8 kts | 255° |
| 2026-05-08 06:15 | 23.85140 | 90.39922 | 41 ft | 8 kts | 234° |
| 2026-05-08 06:15 | 23.85110 | 90.39867 | 41 ft | 8 kts | 256° |
| 2026-05-08 06:16 | 23.85135 | 90.39812 | 41 ft | 9 kts | 317° |
| 2026-05-08 06:16 | 23.85184 | 90.39773 | 41 ft | 9 kts | 324° |
| 2026-05-08 06:16 | 23.85234 | 90.39733 | 41 ft | 9 kts | 324° |
| 2026-05-08 06:16 | 23.85285 | 90.39692 | 41 ft | 9 kts | 324° |
| 2026-05-08 06:17 | 23.85387 | 90.39610 | 41 ft | 9 kts | 323° |
| 2026-05-08 06:17 | 23.85438 | 90.39569 | 41 ft | 9 kts | 323° |
| 2026-05-08 06:17 | 23.85503 | 90.39518 | 41 ft | 13 kts | 324° |
| 2026-05-08 06:18 | 23.85572 | 90.39464 | 41 ft | 12 kts | 324° |
| 2026-05-08 06:18 | 23.85639 | 90.39411 | 41 ft | 12 kts | 324° |
| 2026-05-08 06:18 | 23.85706 | 90.39358 | 41 ft | 12 kts | 323° |
| 2026-05-08 06:18 | 23.85763 | 90.39302 | 41 ft | 10 kts | 299° |
| 2026-05-08 06:19 | 23.85742 | 90.39231 | 41 ft | 11 kts | 233° |
| 2026-05-08 06:19 | 23.85698 | 90.39166 | 41 ft | 11 kts | 233° |
| 2026-05-08 06:19 | 23.85654 | 90.39101 | 41 ft | 11 kts | 233° |
| 2026-05-08 06:19 | 23.85610 | 90.39036 | 41 ft | 11 kts | 233° |
| 2026-05-08 06:20 | 23.85566 | 90.38970 | 40 ft | 11 kts | 233° |
| 2026-05-08 06:20 | 23.85518 | 90.38909 | 40 ft | 11 kts | 217° |
| 2026-05-08 06:20 | 23.85448 | 90.38902 | 40 ft | 11 kts | 158° |
| 2026-05-08 06:20 | 23.85385 | 90.38946 | 40 ft | 11 kts | 144° |
| 2026-05-08 06:21 | 23.85284 | 90.39026 | 40 ft | 33 kts | 144° |
| 2026-05-08 06:21 | 23.84954 | 90.39287 | 41 ft | 95 kts | 144° |
| 2026-05-08 06:21 | 23.84216 | 90.39874 | 40 ft | 165 kts | 143° |
| 2026-05-08 06:21 | 23.83169 | 90.40715 | 297 ft | 195 kts | 144° |
| 2026-05-08 06:22 | 23.82071 | 90.41577 | 1056 ft | 195 kts | 144° |
| 2026-05-08 06:22 | 23.80882 | 90.42256 | 1766 ft | 198 kts | 172° |
| 2026-05-08 06:22 | 23.79510 | 90.41924 | 2098 ft | 220 kts | 215° |
| 2026-05-08 06:22 | 23.78673 | 90.40536 | 2661 ft | 225 kts | 260° |
| 2026-05-08 06:23 | 23.78590 | 90.38846 | 3372 ft | 225 kts | 267° |
| 2026-05-08 06:23 | 23.78491 | 90.37125 | 4027 ft | 233 kts | 265° |
| 2026-05-08 06:23 | 23.78341 | 90.35269 | 4357 ft | 255 kts | 259° |
| 2026-05-08 06:23 | 23.77639 | 90.33454 | 4914 ft | 265 kts | 236° |
| 2026-05-08 06:24 | 23.76584 | 90.31771 | 5665 ft | 272 kts | 236° |
| 2026-05-08 06:24 | 23.75537 | 90.30043 | 6564 ft | 273 kts | 237° |
| 2026-05-08 06:24 | 23.74492 | 90.28307 | 7440 ft | 275 kts | 238° |
| 2026-05-08 06:24 | 23.73434 | 90.26547 | 8239 ft | 279 kts | 238° |
| 2026-05-08 06:25 | 23.72356 | 90.24775 | 9082 ft | 282 kts | 239° |
| 2026-05-08 06:25 | 23.71258 | 90.22983 | 9893 ft | 285 kts | 239° |
| 2026-05-08 06:25 | 23.70145 | 90.21158 | 10509 ft | 297 kts | 239° |
| 2026-05-08 06:25 | 23.68947 | 90.19193 | 10717 ft | 325 kts | 239° |
| 2026-05-08 06:26 | 23.67640 | 90.17056 | 10926 ft | 352 kts | 238° |
| 2026-05-08 06:26 | 23.66242 | 90.14771 | 11375 ft | 369 kts | 238° |
| 2026-05-08 06:26 | 23.64798 | 90.12415 | 12141 ft | 377 kts | 238° |
| 2026-05-08 06:26 | 23.63333 | 90.10025 | 13119 ft | 381 kts | 237° |
| 2026-05-08 06:27 | 23.61877 | 90.07648 | 14055 ft | 383 kts | 237° |
| 2026-05-08 06:27 | 23.60387 | 90.05222 | 14914 ft | 386 kts | 237° |
| 2026-05-08 06:27 | 23.58918 | 90.02759 | 15799 ft | 389 kts | 239° |
| 2026-05-08 06:27 | 23.57507 | 90.00234 | 16654 ft | 391 kts | 240° |
| 2026-05-08 06:28 | 23.56108 | 89.97675 | 17507 ft | 395 kts | 240° |
| 2026-05-08 06:28 | 23.54700 | 89.95095 | 18344 ft | 397 kts | 240° |
| 2026-05-08 06:28 | 23.53278 | 89.92503 | 19062 ft | 400 kts | 240° |
| 2026-05-08 06:28 | 23.51840 | 89.89897 | 19793 ft | 403 kts | 239° |
| 2026-05-08 06:29 | 23.50387 | 89.87276 | 20505 ft | 406 kts | 239° |
| 2026-05-08 06:29 | 23.48920 | 89.84638 | 21195 ft | 409 kts | 239° |
| 2026-05-08 06:29 | 23.47441 | 89.81982 | 21880 ft | 412 kts | 239° |
| 2026-05-08 06:29 | 23.45949 | 89.79305 | 22548 ft | 415 kts | 239° |
| 2026-05-08 06:30 | 23.44445 | 89.76608 | 23199 ft | 418 kts | 239° |
| 2026-05-08 06:30 | 23.42931 | 89.73893 | 23781 ft | 421 kts | 239° |
| 2026-05-08 06:30 | 23.41407 | 89.71162 | 24308 ft | 423 kts | 239° |
| 2026-05-08 06:30 | 23.39878 | 89.68422 | 24867 ft | 424 kts | 239° |
| 2026-05-08 06:31 | 23.38344 | 89.65676 | 25418 ft | 425 kts | 239° |
| 2026-05-08 06:31 | 23.36789 | 89.62933 | 25936 ft | 427 kts | 238° |
| 2026-05-08 06:31 | 23.35183 | 89.60218 | 26430 ft | 429 kts | 237° |
| 2026-05-08 06:31 | 23.33544 | 89.57500 | 26915 ft | 430 kts | 237° |
| 2026-05-08 06:32 | 23.31894 | 89.54774 | 27387 ft | 432 kts | 237° |
| 2026-05-08 06:32 | 23.30239 | 89.52036 | 27853 ft | 434 kts | 237° |
| 2026-05-08 06:32 | 23.28582 | 89.49287 | 28289 ft | 435 kts | 237° |
| 2026-05-08 06:32 | 23.26921 | 89.46525 | 28713 ft | 437 kts | 237° |
| 2026-05-08 06:33 | 23.25256 | 89.43751 | 29117 ft | 439 kts | 237° |
| 2026-05-08 06:33 | 23.23586 | 89.40967 | 29467 ft | 440 kts | 237° |
| 2026-05-08 06:33 | 23.21909 | 89.38174 | 29819 ft | 442 kts | 237° |
| 2026-05-08 06:33 | 23.20249 | 89.35408 | 30114 ft | 443 kts | 237° |
| 2026-05-08 06:34 | 23.18562 | 89.32599 | 30392 ft | 444 kts | 237° |
| 2026-05-08 06:34 | 23.16873 | 89.29789 | 30717 ft | 444 kts | 237° |
| 2026-05-08 06:34 | 23.15187 | 89.26985 | 31079 ft | 443 kts | 237° |
| 2026-05-08 06:34 | 23.13504 | 89.24189 | 31443 ft | 442 kts | 237° |
| 2026-05-08 06:35 | 23.11824 | 89.21399 | 31781 ft | 441 kts | 237° |
| 2026-05-08 06:35 | 23.10142 | 89.18607 | 32087 ft | 441 kts | 237° |
| 2026-05-08 06:35 | 23.08457 | 89.15812 | 32349 ft | 443 kts | 237° |
| 2026-05-08 06:35 | 23.06769 | 89.13011 | 32680 ft | 443 kts | 237° |
| 2026-05-08 06:36 | 23.05083 | 89.10218 | 33065 ft | 441 kts | 237° |
| 2026-05-08 06:36 | 23.03404 | 89.07435 | 33454 ft | 440 kts | 237° |
| 2026-05-08 06:36 | 23.01726 | 89.04659 | 33812 ft | 440 kts | 237° |
| 2026-05-08 06:36 | 23.00050 | 89.01885 | 34125 ft | 439 kts | 237° |
| 2026-05-08 06:37 | 22.98376 | 88.99115 | 34432 ft | 439 kts | 237° |
| 2026-05-08 06:37 | 22.96704 | 88.96350 | 34726 ft | 438 kts | 237° |
| 2026-05-08 06:37 | 22.95034 | 88.93591 | 35046 ft | 437 kts | 237° |
| 2026-05-08 06:37 | 22.93931 | 88.91770 | 35254 ft | 437 kts | 237° |
| 2026-05-08 06:38 | 22.92268 | 88.89015 | 35548 ft | 436 kts | 238° |
| 2026-05-08 06:38 | 22.90667 | 88.86222 | 35823 ft | 436 kts | 239° |
| 2026-05-08 06:38 | 22.87526 | 88.80517 | 35912 ft | 442 kts | 240° |
| 2026-05-08 06:39 | 22.84391 | 88.74827 | 35911 ft | 437 kts | 240° |
| 2026-05-08 06:39 | 22.81261 | 88.69204 | 35914 ft | 435 kts | 239° |
| 2026-05-08 06:40 | 22.78133 | 88.63608 | 35914 ft | 434 kts | 239° |
| 2026-05-08 06:40 | 22.75005 | 88.58017 | 35902 ft | 434 kts | 239° |
| 2026-05-08 06:41 | 22.71865 | 88.52408 | 35912 ft | 436 kts | 239° |
| 2026-05-08 06:41 | 22.69123 | 88.46607 | 35914 ft | 438 kts | 252° |
| 2026-05-08 06:42 | 22.67956 | 88.40126 | 35918 ft | 442 kts | 264° |
| 2026-05-08 06:42 | 22.68229 | 88.33433 | 35912 ft | 447 kts | 271° |
| 2026-05-08 06:43 | 22.68747 | 88.26718 | 35911 ft | 447 kts | 271° |
| 2026-05-08 06:43 | 22.69237 | 88.20004 | 35910 ft | 447 kts | 271° |
| 2026-05-08 06:44 | 22.69691 | 88.13296 | 35912 ft | 446 kts | 271° |
| 2026-05-08 06:44 | 22.70128 | 88.06608 | 35915 ft | 445 kts | 271° |
| 2026-05-08 06:45 | 22.70559 | 87.99923 | 35914 ft | 445 kts | 271° |
| 2026-05-08 06:45 | 22.70988 | 87.93249 | 35917 ft | 444 kts | 271° |
| 2026-05-08 06:46 | 22.71414 | 87.86583 | 35915 ft | 443 kts | 271° |
| 2026-05-08 06:46 | 22.71837 | 87.79922 | 35911 ft | 443 kts | 271° |
| 2026-05-08 06:47 | 22.72257 | 87.73264 | 35908 ft | 443 kts | 271° |
| 2026-05-08 06:47 | 22.72674 | 87.66606 | 35908 ft | 443 kts | 271° |
| 2026-05-08 06:48 | 22.73089 | 87.59946 | 35907 ft | 443 kts | 271° |
| 2026-05-08 06:48 | 22.73502 | 87.53283 | 35903 ft | 443 kts | 271° |
| 2026-05-08 06:49 | 22.73911 | 87.46617 | 35905 ft | 444 kts | 271° |
| 2026-05-08 06:49 | 22.74318 | 87.39944 | 35899 ft | 444 kts | 271° |
| 2026-05-08 06:50 | 22.74720 | 87.33313 | 35903 ft | 444 kts | 271° |
| 2026-05-08 06:50 | 22.75123 | 87.26633 | 35901 ft | 444 kts | 271° |
| 2026-05-08 06:51 | 22.75524 | 87.19913 | 35900 ft | 444 kts | 271° |
| 2026-05-08 06:51 | 22.75921 | 87.13229 | 35912 ft | 444 kts | 270° |
| 2026-05-08 06:52 | 22.76312 | 87.06586 | 35911 ft | 444 kts | 270° |
| 2026-05-08 06:52 | 22.76702 | 86.99918 | 35909 ft | 444 kts | 270° |
| 2026-05-08 06:53 | 22.77090 | 86.93251 | 35927 ft | 443 kts | 270° |
| 2026-05-08 06:53 | 22.77474 | 86.86594 | 35925 ft | 442 kts | 270° |
| 2026-05-08 06:54 | 22.77855 | 86.79947 | 35917 ft | 442 kts | 270° |
| 2026-05-08 06:54 | 22.78232 | 86.73309 | 35930 ft | 441 kts | 270° |
| 2026-05-08 06:55 | 22.78606 | 86.66676 | 35929 ft | 441 kts | 270° |
| 2026-05-08 06:55 | 22.78977 | 86.60045 | 35938 ft | 441 kts | 270° |
| 2026-05-08 06:56 | 22.79346 | 86.53411 | 35950 ft | 441 kts | 270° |
| 2026-05-08 06:56 | 22.79712 | 86.46783 | 35945 ft | 441 kts | 270° |
| 2026-05-08 06:57 | 22.80075 | 86.40147 | 35948 ft | 441 kts | 270° |
| 2026-05-08 06:57 | 22.80436 | 86.33512 | 35965 ft | 441 kts | 270° |
| 2026-05-08 06:58 | 22.80792 | 86.26917 | 35950 ft | 441 kts | 270° |
| 2026-05-08 06:58 | 22.81147 | 86.20279 | 35909 ft | 441 kts | 270° |
| 2026-05-08 06:59 | 22.81552 | 86.13646 | 35922 ft | 441 kts | 272° |
| 2026-05-08 06:59 | 22.82120 | 86.07022 | 35911 ft | 441 kts | 272° |
| 2026-05-08 07:00 | 22.82700 | 86.00408 | 35927 ft | 441 kts | 272° |
| 2026-05-08 07:00 | 22.83257 | 85.93792 | 35937 ft | 440 kts | 272° |
| 2026-05-08 07:01 | 22.83800 | 85.87178 | 35949 ft | 441 kts | 272° |
| 2026-05-08 07:01 | 22.84338 | 85.80561 | 35961 ft | 440 kts | 272° |
| 2026-05-08 07:02 | 22.84874 | 85.73946 | 35976 ft | 440 kts | 272° |
| 2026-05-08 07:02 | 22.85408 | 85.67328 | 35988 ft | 441 kts | 272° |
| 2026-05-08 07:03 | 22.85940 | 85.60697 | 35983 ft | 442 kts | 272° |
| 2026-05-08 07:03 | 22.86470 | 85.54060 | 35980 ft | 442 kts | 272° |
| 2026-05-08 07:04 | 22.86996 | 85.47433 | 35983 ft | 441 kts | 272° |
| 2026-05-08 07:04 | 22.87519 | 85.40807 | 35986 ft | 441 kts | 272° |
| 2026-05-08 07:05 | 22.88039 | 85.34187 | 35991 ft | 440 kts | 272° |
| 2026-05-08 07:05 | 22.88553 | 85.27610 | 35989 ft | 441 kts | 272° |
| 2026-05-08 07:06 | 22.89068 | 85.20984 | 35992 ft | 441 kts | 272° |
| 2026-05-08 07:06 | 22.89581 | 85.14354 | 35991 ft | 441 kts | 272° |
| 2026-05-08 07:07 | 22.90092 | 85.07725 | 35983 ft | 441 kts | 272° |
| 2026-05-08 07:07 | 22.90600 | 85.01091 | 35998 ft | 441 kts | 272° |
| 2026-05-08 07:08 | 22.91107 | 84.94455 | 35998 ft | 441 kts | 272° |
| 2026-05-08 07:08 | 22.91609 | 84.87829 | 35997 ft | 441 kts | 272° |
| 2026-05-08 07:09 | 22.92110 | 84.81197 | 35992 ft | 441 kts | 272° |
| 2026-05-08 07:09 | 22.92607 | 84.74563 | 35997 ft | 441 kts | 272° |
| 2026-05-08 07:10 | 22.93102 | 84.67928 | 35991 ft | 441 kts | 272° |
| 2026-05-08 07:10 | 22.93594 | 84.61294 | 35986 ft | 441 kts | 272° |
| 2026-05-08 07:11 | 22.94083 | 84.54662 | 35986 ft | 441 kts | 272° |
| 2026-05-08 07:11 | 22.94570 | 84.48036 | 35989 ft | 440 kts | 272° |
| 2026-05-08 07:12 | 22.95052 | 84.41418 | 35994 ft | 440 kts | 272° |
| 2026-05-08 07:12 | 22.95532 | 84.34791 | 35983 ft | 441 kts | 272° |
| 2026-05-08 07:13 | 22.96010 | 84.28163 | 35990 ft | 441 kts | 272° |
| 2026-05-08 07:13 | 22.96485 | 84.21533 | 35981 ft | 441 kts | 272° |
| 2026-05-08 07:14 | 22.96956 | 84.14943 | 35976 ft | 441 kts | 272° |
| 2026-05-08 07:14 | 22.97385 | 84.08301 | 35978 ft | 441 kts | 271° |
| 2026-05-08 07:15 | 22.97736 | 84.01655 | 35963 ft | 441 kts | 271° |
| 2026-05-08 07:15 | 22.98081 | 83.95008 | 35973 ft | 441 kts | 271° |
| 2026-05-08 07:16 | 22.98432 | 83.88358 | 35965 ft | 442 kts | 272° |
| 2026-05-08 07:16 | 22.98787 | 83.81696 | 35979 ft | 442 kts | 271° |
| 2026-05-08 07:17 | 22.99140 | 83.75037 | 35949 ft | 441 kts | 271° |
| 2026-05-08 07:17 | 22.99488 | 83.68405 | 35940 ft | 440 kts | 271° |
| 2026-05-08 07:18 | 22.99833 | 83.61792 | 35937 ft | 438 kts | 271° |
| 2026-05-08 07:18 | 23.00173 | 83.55198 | 35932 ft | 437 kts | 271° |
| 2026-05-08 07:19 | 23.00510 | 83.48611 | 35941 ft | 437 kts | 272° |
| 2026-05-08 07:19 | 23.00845 | 83.42024 | 35926 ft | 437 kts | 272° |
| 2026-05-08 07:20 | 23.01177 | 83.35434 | 35922 ft | 437 kts | 271° |
| 2026-05-08 07:20 | 23.01507 | 83.28840 | 35914 ft | 438 kts | 271° |
| 2026-05-08 07:21 | 23.01834 | 83.22232 | 35915 ft | 438 kts | 271° |
| 2026-05-08 07:21 | 23.02159 | 83.15627 | 35902 ft | 439 kts | 271° |
| 2026-05-08 07:22 | 23.02479 | 83.09053 | 35915 ft | 439 kts | 272° |
| 2026-05-08 07:22 | 23.02801 | 83.02385 | 35908 ft | 440 kts | 272° |
| 2026-05-08 07:23 | 23.03119 | 82.95757 | 35914 ft | 440 kts | 272° |
| 2026-05-08 07:23 | 23.03434 | 82.89124 | 35914 ft | 440 kts | 272° |
| 2026-05-08 07:24 | 23.03744 | 82.82531 | 35900 ft | 440 kts | 272° |
| 2026-05-08 07:24 | 23.04053 | 82.75893 | 35898 ft | 440 kts | 272° |
| 2026-05-08 07:25 | 23.04360 | 82.69263 | 35907 ft | 440 kts | 272° |
| 2026-05-08 07:26 | 23.04815 | 82.59305 | 35918 ft | 440 kts | 272° |
| 2026-05-08 07:26 | 23.05115 | 82.52668 | 35906 ft | 440 kts | 272° |
| 2026-05-08 07:27 | 23.05364 | 82.47107 | 35913 ft | 440 kts | 272° |
| 2026-05-08 07:27 | 23.05657 | 82.40513 | 35924 ft | 440 kts | 272° |
| 2026-05-08 07:28 | 23.05951 | 82.33830 | 35926 ft | 440 kts | 272° |
| 2026-05-08 07:28 | 23.06238 | 82.27246 | 35926 ft | 440 kts | 272° |
| 2026-05-08 07:29 | 23.06525 | 82.20607 | 35926 ft | 439 kts | 272° |
| 2026-05-08 07:29 | 23.06827 | 82.13981 | 35922 ft | 439 kts | 272° |
| 2026-05-08 07:30 | 23.07239 | 82.07366 | 35923 ft | 439 kts | 273° |
| 2026-05-08 07:30 | 23.07672 | 82.00753 | 35935 ft | 439 kts | 273° |
| 2026-05-08 07:31 | 23.08090 | 81.94142 | 35947 ft | 439 kts | 273° |
| 2026-05-08 07:31 | 23.08498 | 81.87528 | 35936 ft | 439 kts | 273° |
| 2026-05-08 07:32 | 23.08900 | 81.80912 | 35935 ft | 439 kts | 273° |
| 2026-05-08 07:32 | 23.09300 | 81.74293 | 35949 ft | 439 kts | 273° |
| 2026-05-08 07:33 | 23.09697 | 81.67672 | 35948 ft | 439 kts | 273° |
| 2026-05-08 07:33 | 23.10092 | 81.61049 | 35936 ft | 439 kts | 272° |
| 2026-05-08 07:34 | 23.10485 | 81.54423 | 35951 ft | 440 kts | 272° |
| 2026-05-08 07:34 | 23.10874 | 81.47791 | 35936 ft | 440 kts | 272° |
| 2026-05-08 07:35 | 23.11262 | 81.41155 | 35936 ft | 440 kts | 272° |
| 2026-05-08 07:35 | 23.11646 | 81.34518 | 35936 ft | 440 kts | 272° |
| 2026-05-08 07:36 | 23.12028 | 81.27880 | 35936 ft | 440 kts | 272° |
| 2026-05-08 07:36 | 23.12407 | 81.21238 | 35926 ft | 442 kts | 273° |
| 2026-05-08 07:37 | 23.12786 | 81.14566 | 35925 ft | 443 kts | 272° |
| 2026-05-08 07:37 | 23.13162 | 81.07874 | 35923 ft | 444 kts | 272° |
| 2026-05-08 07:38 | 23.13534 | 81.01211 | 35927 ft | 445 kts | 272° |
| 2026-05-08 07:38 | 23.13906 | 80.94491 | 35933 ft | 446 kts | 272° |
| 2026-05-08 07:39 | 23.14276 | 80.87769 | 35940 ft | 445 kts | 273° |
| 2026-05-08 07:39 | 23.14642 | 80.81060 | 35938 ft | 445 kts | 272° |
| 2026-05-08 07:40 | 23.15006 | 80.74353 | 35928 ft | 444 kts | 272° |
| 2026-05-08 07:40 | 23.15371 | 80.67657 | 35953 ft | 443 kts | 272° |
| 2026-05-08 07:41 | 23.15734 | 80.60971 | 35940 ft | 443 kts | 272° |
| 2026-05-08 07:41 | 23.16093 | 80.54300 | 35935 ft | 442 kts | 272° |
| 2026-05-08 07:42 | 23.16448 | 80.47643 | 35941 ft | 441 kts | 272° |
| 2026-05-08 07:42 | 23.16800 | 80.40993 | 35934 ft | 441 kts | 272° |
| 2026-05-08 07:43 | 23.17149 | 80.34344 | 35935 ft | 441 kts | 272° |
| 2026-05-08 07:43 | 23.17495 | 80.27691 | 35926 ft | 441 kts | 272° |
| 2026-05-08 07:44 | 23.17837 | 80.21081 | 35917 ft | 441 kts | 272° |
| 2026-05-08 07:44 | 23.18178 | 80.14422 | 35906 ft | 442 kts | 272° |
| 2026-05-08 07:45 | 23.18519 | 80.07718 | 35925 ft | 442 kts | 272° |
| 2026-05-08 07:45 | 23.18833 | 80.01084 | 35913 ft | 443 kts | 272° |
| 2026-05-08 07:46 | 23.19118 | 79.94393 | 35906 ft | 443 kts | 272° |
| 2026-05-08 07:46 | 23.19402 | 79.87699 | 35914 ft | 443 kts | 272° |
| 2026-05-08 07:47 | 23.19688 | 79.81003 | 35924 ft | 443 kts | 272° |
| 2026-05-08 07:47 | 23.19971 | 79.74305 | 35936 ft | 444 kts | 272° |
| 2026-05-08 07:48 | 23.20253 | 79.67603 | 35930 ft | 444 kts | 272° |
| 2026-05-08 07:48 | 23.20532 | 79.60899 | 35936 ft | 444 kts | 272° |
| 2026-05-08 07:49 | 23.20786 | 79.54201 | 35937 ft | 444 kts | 271° |
| 2026-05-08 07:49 | 23.20912 | 79.47491 | 35927 ft | 444 kts | 271° |
| 2026-05-08 07:50 | 23.21014 | 79.40782 | 35916 ft | 444 kts | 271° |
| 2026-05-08 07:50 | 23.21126 | 79.34071 | 35928 ft | 444 kts | 271° |
| 2026-05-08 07:51 | 23.21245 | 79.27358 | 35933 ft | 444 kts | 271° |
| 2026-05-08 07:51 | 23.21362 | 79.20687 | 35930 ft | 444 kts | 271° |
| 2026-05-08 07:52 | 23.21477 | 79.13971 | 35929 ft | 444 kts | 271° |
| 2026-05-08 07:52 | 23.21589 | 79.07255 | 35923 ft | 444 kts | 271° |
| 2026-05-08 07:53 | 23.21697 | 79.00535 | 35927 ft | 445 kts | 271° |
| 2026-05-08 07:53 | 23.21803 | 78.93811 | 35927 ft | 445 kts | 271° |
| 2026-05-08 07:54 | 23.21906 | 78.87089 | 35926 ft | 445 kts | 271° |
| 2026-05-08 07:54 | 23.22007 | 78.80355 | 35936 ft | 445 kts | 271° |
| 2026-05-08 07:55 | 23.22105 | 78.73618 | 35933 ft | 446 kts | 271° |
| 2026-05-08 07:55 | 23.22364 | 78.66888 | 35929 ft | 446 kts | 273° |
| 2026-05-08 07:56 | 23.22728 | 78.60160 | 35935 ft | 446 kts | 273° |
| 2026-05-08 07:56 | 23.23077 | 78.53428 | 35931 ft | 446 kts | 273° |
| 2026-05-08 07:57 | 23.23402 | 78.46698 | 35934 ft | 446 kts | 273° |
| 2026-05-08 07:57 | 23.23715 | 78.39995 | 35937 ft | 446 kts | 273° |
| 2026-05-08 07:58 | 23.24026 | 78.33254 | 35928 ft | 446 kts | 273° |
| 2026-05-08 07:58 | 23.24335 | 78.26520 | 35929 ft | 446 kts | 273° |
| 2026-05-08 07:59 | 23.24641 | 78.19779 | 35929 ft | 446 kts | 273° |
| 2026-05-08 07:59 | 23.24945 | 78.13035 | 35921 ft | 446 kts | 273° |
| 2026-05-08 08:00 | 23.25246 | 78.06291 | 35927 ft | 446 kts | 273° |
| 2026-05-08 08:00 | 23.25543 | 77.99549 | 35929 ft | 446 kts | 273° |
| 2026-05-08 08:01 | 23.25838 | 77.92807 | 35911 ft | 446 kts | 273° |
| 2026-05-08 08:01 | 23.26130 | 77.86065 | 35917 ft | 446 kts | 273° |
| 2026-05-08 08:02 | 23.26420 | 77.79319 | 35911 ft | 447 kts | 273° |
| 2026-05-08 08:02 | 23.26706 | 77.72577 | 35939 ft | 447 kts | 273° |
| 2026-05-08 08:03 | 23.26989 | 77.65825 | 35909 ft | 447 kts | 273° |
| 2026-05-08 08:03 | 23.27270 | 77.59083 | 35912 ft | 446 kts | 273° |
| 2026-05-08 08:04 | 23.27547 | 77.52357 | 35920 ft | 445 kts | 273° |
| 2026-05-08 08:04 | 23.27821 | 77.45640 | 35917 ft | 444 kts | 273° |
| 2026-05-08 08:05 | 23.28092 | 77.38928 | 35916 ft | 444 kts | 273° |
| 2026-05-08 08:05 | 23.28235 | 77.32221 | 35922 ft | 445 kts | 268° |
| 2026-05-08 08:06 | 23.27758 | 77.25509 | 35890 ft | 445 kts | 266° |
| 2026-05-08 08:06 | 23.27260 | 77.18791 | 35890 ft | 446 kts | 267° |
| 2026-05-08 08:07 | 23.26774 | 77.12063 | 35893 ft | 446 kts | 267° |
| 2026-05-08 08:07 | 23.26293 | 77.05326 | 35912 ft | 447 kts | 267° |
| 2026-05-08 08:08 | 23.25810 | 76.98582 | 35912 ft | 447 kts | 267° |
| 2026-05-08 08:08 | 23.25323 | 76.91833 | 35908 ft | 448 kts | 267° |
| 2026-05-08 08:09 | 23.24837 | 76.85128 | 35902 ft | 448 kts | 267° |
| 2026-05-08 08:09 | 23.24343 | 76.78375 | 35904 ft | 448 kts | 267° |
| 2026-05-08 08:10 | 23.23847 | 76.71619 | 35911 ft | 448 kts | 267° |
| 2026-05-08 08:10 | 23.23348 | 76.64869 | 35902 ft | 448 kts | 267° |
| 2026-05-08 08:11 | 23.22846 | 76.58111 | 35907 ft | 448 kts | 267° |
| 2026-05-08 08:11 | 23.22341 | 76.51351 | 35912 ft | 449 kts | 267° |
| 2026-05-08 08:12 | 23.21832 | 76.44591 | 35902 ft | 449 kts | 267° |
| 2026-05-08 08:12 | 23.21321 | 76.37828 | 35903 ft | 449 kts | 267° |
| 2026-05-08 08:13 | 23.20807 | 76.31063 | 35906 ft | 449 kts | 267° |
| 2026-05-08 08:13 | 23.20289 | 76.24295 | 35906 ft | 449 kts | 267° |
| 2026-05-08 08:14 | 23.19769 | 76.17535 | 35896 ft | 449 kts | 267° |
| 2026-05-08 08:14 | 23.19334 | 76.11909 | 35880 ft | 449 kts | 267° |
| 2026-05-08 08:15 | 23.18809 | 76.05145 | 35888 ft | 449 kts | 267° |
| 2026-05-08 08:15 | 23.18351 | 75.98371 | 35892 ft | 448 kts | 270° |
| 2026-05-08 08:16 | 23.18267 | 75.91598 | 35904 ft | 448 kts | 271° |
| 2026-05-08 08:16 | 23.18211 | 75.84819 | 35894 ft | 449 kts | 271° |
| 2026-05-08 08:17 | 23.18140 | 75.78034 | 35887 ft | 449 kts | 271° |
| 2026-05-08 08:17 | 23.18057 | 75.71247 | 35896 ft | 449 kts | 271° |
| 2026-05-08 08:18 | 23.17968 | 75.64457 | 35887 ft | 449 kts | 271° |
| 2026-05-08 08:18 | 23.17876 | 75.57709 | 35889 ft | 450 kts | 271° |
| 2026-05-08 08:19 | 23.17782 | 75.50915 | 35889 ft | 450 kts | 271° |
| 2026-05-08 08:19 | 23.17684 | 75.44118 | 35887 ft | 450 kts | 271° |
| 2026-05-08 08:20 | 23.17583 | 75.37321 | 35882 ft | 450 kts | 271° |
| 2026-05-08 08:20 | 23.17480 | 75.30526 | 35884 ft | 450 kts | 271° |
| 2026-05-08 08:21 | 23.17374 | 75.23734 | 35882 ft | 450 kts | 271° |
| 2026-05-08 08:21 | 23.17264 | 75.16931 | 35881 ft | 450 kts | 271° |
| 2026-05-08 08:22 | 23.17152 | 75.10126 | 35880 ft | 450 kts | 271° |
| 2026-05-08 08:22 | 23.17037 | 75.03320 | 35865 ft | 450 kts | 271° |
| 2026-05-08 08:23 | 23.16919 | 74.96513 | 35871 ft | 451 kts | 271° |
| 2026-05-08 08:23 | 23.16797 | 74.89702 | 35871 ft | 451 kts | 271° |
| 2026-05-08 08:24 | 23.16674 | 74.82890 | 35873 ft | 451 kts | 271° |
| 2026-05-08 08:24 | 23.16547 | 74.76076 | 35862 ft | 451 kts | 271° |
| 2026-05-08 08:25 | 23.16416 | 74.69261 | 35864 ft | 451 kts | 271° |
| 2026-05-08 08:25 | 23.16284 | 74.62446 | 35855 ft | 451 kts | 271° |
| 2026-05-08 08:26 | 23.16147 | 74.55630 | 35855 ft | 451 kts | 271° |
| 2026-05-08 08:26 | 23.16009 | 74.48820 | 35851 ft | 451 kts | 271° |
| 2026-05-08 08:27 | 23.15868 | 74.42051 | 35847 ft | 451 kts | 271° |
| 2026-05-08 08:27 | 23.15724 | 74.35237 | 35831 ft | 451 kts | 271° |
| 2026-05-08 08:28 | 23.15490 | 74.28420 | 35836 ft | 452 kts | 270° |
| 2026-05-08 08:28 | 23.15148 | 74.21602 | 35833 ft | 452 kts | 269° |
| 2026-05-08 08:29 | 23.14805 | 74.14779 | 35832 ft | 452 kts | 269° |
| 2026-05-08 08:29 | 23.14473 | 74.07952 | 35835 ft | 453 kts | 269° |
| 2026-05-08 08:30 | 23.14146 | 74.01129 | 35830 ft | 453 kts | 269° |
| 2026-05-08 08:30 | 23.13651 | 73.90878 | 35823 ft | 453 kts | 270° |
| 2026-05-08 08:31 | 23.13317 | 73.84041 | 35827 ft | 453 kts | 270° |
| 2026-05-08 08:31 | 23.12980 | 73.77200 | 35809 ft | 454 kts | 270° |
| 2026-05-08 08:32 | 23.12639 | 73.70358 | 35816 ft | 454 kts | 270° |
| 2026-05-08 08:32 | 23.12295 | 73.63512 | 35799 ft | 454 kts | 270° |
| 2026-05-08 08:33 | 23.11947 | 73.56664 | 35815 ft | 454 kts | 270° |
| 2026-05-08 08:33 | 23.11598 | 73.49818 | 35811 ft | 454 kts | 270° |
| 2026-05-08 08:34 | 23.11245 | 73.42962 | 35807 ft | 455 kts | 270° |
| 2026-05-08 08:34 | 23.10888 | 73.36105 | 35798 ft | 455 kts | 270° |
| 2026-05-08 08:35 | 23.10529 | 73.29245 | 35790 ft | 455 kts | 270° |
| 2026-05-08 08:35 | 23.10166 | 73.22383 | 35804 ft | 455 kts | 270° |
| 2026-05-08 08:36 | 23.09800 | 73.15515 | 35795 ft | 455 kts | 270° |
| 2026-05-08 08:36 | 23.09431 | 73.08646 | 35800 ft | 456 kts | 270° |
| 2026-05-08 08:37 | 23.09062 | 73.01819 | 35802 ft | 456 kts | 270° |
| 2026-05-08 08:37 | 23.08687 | 72.94945 | 35794 ft | 456 kts | 270° |
| 2026-05-08 08:38 | 23.08309 | 72.88076 | 35802 ft | 456 kts | 270° |
| 2026-05-08 08:38 | 23.07928 | 72.81194 | 35799 ft | 457 kts | 270° |
| 2026-05-08 08:39 | 23.07543 | 72.74306 | 35806 ft | 457 kts | 270° |
| 2026-05-08 08:39 | 23.07155 | 72.67412 | 35801 ft | 457 kts | 270° |
| 2026-05-08 08:40 | 23.06618 | 72.60522 | 35798 ft | 460 kts | 265° |
| 2026-05-08 08:40 | 23.05647 | 72.53656 | 35803 ft | 460 kts | 265° |
| 2026-05-08 08:41 | 23.04653 | 72.46783 | 35804 ft | 461 kts | 265° |
| 2026-05-08 08:41 | 23.03674 | 72.39909 | 35805 ft | 461 kts | 265° |
| 2026-05-08 08:42 | 23.02699 | 72.33021 | 35804 ft | 462 kts | 265° |
| 2026-05-08 08:42 | 23.01725 | 72.26131 | 35804 ft | 462 kts | 265° |
| 2026-05-08 08:43 | 23.00746 | 72.19238 | 35807 ft | 462 kts | 265° |
| 2026-05-08 08:43 | 22.99764 | 72.12340 | 35812 ft | 463 kts | 265° |
| 2026-05-08 08:44 | 22.98777 | 72.05437 | 35814 ft | 463 kts | 265° |
| 2026-05-08 08:44 | 22.97786 | 71.98531 | 35813 ft | 463 kts | 265° |
| 2026-05-08 08:45 | 22.96798 | 71.91666 | 35814 ft | 464 kts | 265° |
| 2026-05-08 08:45 | 22.95801 | 71.84752 | 35808 ft | 464 kts | 264° |
| 2026-05-08 08:46 | 22.94799 | 71.77836 | 35819 ft | 464 kts | 264° |
| 2026-05-08 08:46 | 22.93794 | 71.70916 | 35816 ft | 464 kts | 264° |
| 2026-05-08 08:47 | 22.92787 | 71.64000 | 35819 ft | 465 kts | 264° |
| 2026-05-08 08:47 | 22.91775 | 71.57075 | 35819 ft | 465 kts | 264° |
| 2026-05-08 08:48 | 22.90759 | 71.50148 | 35815 ft | 465 kts | 264° |
| 2026-05-08 08:48 | 22.89740 | 71.43216 | 35826 ft | 465 kts | 264° |
| 2026-05-08 08:49 | 22.88717 | 71.36279 | 35826 ft | 466 kts | 264° |
| 2026-05-08 08:49 | 22.87690 | 71.29339 | 35826 ft | 466 kts | 264° |
| 2026-05-08 08:50 | 22.86661 | 71.22404 | 35826 ft | 466 kts | 264° |
| 2026-05-08 08:50 | 22.85627 | 71.15463 | 35828 ft | 466 kts | 264° |
| 2026-05-08 08:51 | 22.84591 | 71.08523 | 35828 ft | 466 kts | 264° |
| 2026-05-08 08:51 | 22.83552 | 71.01584 | 35842 ft | 466 kts | 264° |
| 2026-05-08 08:52 | 22.82510 | 70.94645 | 35840 ft | 466 kts | 264° |
| 2026-05-08 08:52 | 22.81466 | 70.87709 | 35836 ft | 466 kts | 264° |
| 2026-05-08 08:53 | 22.80943 | 70.80747 | 35847 ft | 462 kts | 273° |
| 2026-05-08 08:53 | 22.81354 | 70.73811 | 35851 ft | 461 kts | 277° |
| 2026-05-08 08:54 | 22.81833 | 70.66889 | 35846 ft | 461 kts | 277° |
| 2026-05-08 08:54 | 22.82288 | 70.59949 | 35851 ft | 462 kts | 276° |
| 2026-05-08 08:55 | 22.82727 | 70.53001 | 35830 ft | 462 kts | 276° |
| 2026-05-08 08:55 | 22.83160 | 70.46047 | 35867 ft | 462 kts | 276° |
| 2026-05-08 08:56 | 22.83588 | 70.39136 | 35855 ft | 463 kts | 276° |
| 2026-05-08 08:56 | 22.84016 | 70.32181 | 35855 ft | 462 kts | 276° |
| 2026-05-08 08:57 | 22.84441 | 70.25234 | 35854 ft | 462 kts | 276° |
| 2026-05-08 08:57 | 22.84862 | 70.18293 | 35846 ft | 461 kts | 276° |
| 2026-05-08 08:58 | 22.85281 | 70.11353 | 35845 ft | 461 kts | 276° |
| 2026-05-08 08:58 | 22.85697 | 70.04407 | 35848 ft | 462 kts | 276° |
| 2026-05-08 08:59 | 22.86110 | 69.97456 | 35847 ft | 462 kts | 276° |
| 2026-05-08 08:59 | 22.86520 | 69.90498 | 35844 ft | 463 kts | 276° |
| 2026-05-08 09:00 | 22.86927 | 69.83542 | 35838 ft | 463 kts | 276° |
| 2026-05-08 09:00 | 22.87333 | 69.76569 | 35850 ft | 463 kts | 276° |
| 2026-05-08 09:01 | 22.87736 | 69.69589 | 35848 ft | 464 kts | 276° |
| 2026-05-08 09:01 | 22.88178 | 69.62605 | 35846 ft | 464 kts | 276° |
| 2026-05-08 09:02 | 22.88561 | 69.56796 | 35847 ft | 464 kts | 276° |
| 2026-05-08 09:02 | 22.89017 | 69.49814 | 35838 ft | 465 kts | 276° |
| 2026-05-08 09:03 | 22.89466 | 69.42817 | 35845 ft | 465 kts | 276° |
| 2026-05-08 09:03 | 22.89910 | 69.35814 | 35844 ft | 466 kts | 276° |
| 2026-05-08 09:04 | 22.90351 | 69.28805 | 35845 ft | 466 kts | 276° |
| 2026-05-08 09:04 | 22.90789 | 69.21794 | 35840 ft | 466 kts | 276° |
| 2026-05-08 09:05 | 22.91225 | 69.14779 | 35838 ft | 466 kts | 276° |
| 2026-05-08 09:05 | 22.91657 | 69.07757 | 35843 ft | 467 kts | 276° |
| 2026-05-08 09:06 | 22.92088 | 69.00726 | 35838 ft | 467 kts | 276° |
| 2026-05-08 09:06 | 22.92515 | 68.93689 | 35839 ft | 468 kts | 276° |
| 2026-05-08 09:07 | 22.92939 | 68.86652 | 35842 ft | 467 kts | 276° |
| 2026-05-08 09:07 | 22.93360 | 68.79625 | 35835 ft | 467 kts | 276° |
| 2026-05-08 09:08 | 22.93777 | 68.72606 | 35839 ft | 466 kts | 276° |
| 2026-05-08 09:08 | 22.94190 | 68.65602 | 35838 ft | 466 kts | 276° |
| 2026-05-08 09:09 | 22.94598 | 68.58631 | 35838 ft | 465 kts | 276° |
| 2026-05-08 09:09 | 22.95005 | 68.51632 | 35833 ft | 465 kts | 275° |
| 2026-05-08 09:10 | 22.95410 | 68.44621 | 35839 ft | 466 kts | 275° |
| 2026-05-08 09:10 | 22.95801 | 68.37598 | 35840 ft | 467 kts | 274° |
| 2026-05-08 09:11 | 22.95861 | 68.30541 | 35838 ft | 468 kts | 272° |
| 2026-05-08 09:11 | 22.95832 | 68.23471 | 35836 ft | 469 kts | 272° |
| 2026-05-08 09:12 | 22.95818 | 68.16393 | 35830 ft | 469 kts | 272° |
| 2026-05-08 09:12 | 22.95817 | 68.09307 | 35837 ft | 470 kts | 272° |
| 2026-05-08 09:13 | 22.95816 | 68.02215 | 35836 ft | 470 kts | 272° |
| 2026-05-08 09:13 | 22.95810 | 67.95118 | 35834 ft | 470 kts | 272° |
| 2026-05-08 09:14 | 22.95801 | 67.88065 | 35835 ft | 471 kts | 272° |
| 2026-05-08 09:14 | 22.95806 | 67.80919 | 35832 ft | 470 kts | 272° |
| 2026-05-08 09:15 | 22.95826 | 67.73831 | 35835 ft | 470 kts | 272° |
| 2026-05-08 09:15 | 22.95843 | 67.66787 | 35837 ft | 470 kts | 272° |
| 2026-05-08 09:16 | 22.95854 | 67.59698 | 35832 ft | 470 kts | 272° |
| 2026-05-08 09:16 | 22.95860 | 67.52613 | 35828 ft | 470 kts | 272° |
| 2026-05-08 09:17 | 22.95863 | 67.45523 | 35830 ft | 470 kts | 271° |
| 2026-05-08 09:17 | 22.95863 | 67.38426 | 35831 ft | 471 kts | 271° |
| 2026-05-08 09:18 | 22.95860 | 67.31320 | 35830 ft | 471 kts | 271° |
| 2026-05-08 09:18 | 22.95854 | 67.24208 | 35831 ft | 472 kts | 271° |
| 2026-05-08 09:19 | 22.95845 | 67.17097 | 35831 ft | 472 kts | 271° |
| 2026-05-08 09:19 | 22.95832 | 67.09964 | 35825 ft | 472 kts | 271° |
| 2026-05-08 09:20 | 22.95817 | 67.02835 | 35839 ft | 472 kts | 271° |
| 2026-05-08 09:20 | 22.95799 | 66.95725 | 35827 ft | 471 kts | 271° |
| 2026-05-08 09:21 | 22.95827 | 66.88627 | 35818 ft | 470 kts | 272° |